Latest Weather Observations for Tocal

IDN60801

Issued at 8:02 pm EST Wednesday 5 August 2015 (issued every 30 minutes, with the page automatically refreshed every 10 minutes)

About weather observations | Map of weather stations | Latest weather observations for NSW | Other Formats
Station Details ID: 061250 Name: TOCAL AWS Lat: -32.63 Lon: 151.59 Height: 30.0 m
Data from the previous 72 hours. | See also: Recent months at Tocal
Date/Time
EST
Temp
°C
App
Temp
°C
Dew
Point
Rel
Hum
%
Delta-T
°C
Wind Press
QNH
hPa
Press
MSL
hPa
Rain
since 9 am
mm
Dir
 
Spd
km/h
Gust
km/h
Spd
kts
Gust
kts
05/08:00pm 11.5 6.0 1.6 50 4.2 WNW 20 39 11 21 - - 0.0
05/07:30pm 11.9 6.8 0.9 47 4.6 W 17 32 9 17 - - 0.0
05/07:00pm 12.0 6.9 0.7 46 4.7 WNW 17 30 9 16 - - 0.0
05/06:30pm 12.2 6.7 0.7 45 4.8 WNW 19 35 10 19 - - 0.0
05/06:00pm 12.4 5.9 0.0 42 5.1 NW 24 41 13 22 - - 0.0
05/05:30pm 12.6 6.0 -0.3 41 5.3 NW 24 41 13 22 - - 0.0
05/05:00pm 13.0 6.4 -0.7 39 5.6 NW 24 41 13 22 - - 0.0
05/04:30pm 13.5 7.8 -0.6 38 5.8 NW 19 33 10 18 - - 0.0
05/04:00pm 14.1 7.1 -0.7 36 6.1 NW 26 43 14 23 - - 0.0
05/03:30pm 15.1 - -0.4 34 6.5 - - - - - - - 0.0
05/03:00pm 14.5 6.7 -1.1 34 6.4 WNW 30 - 16 - - - 0.0
05/02:30pm 14.7 6.9 -1.1 33 6.5 WNW 30 54 16 29 - - 0.0
05/02:28pm 14.4 6.5 -1.2 34 6.4 WNW 30 54 16 29 - - 0.0
05/02:27pm 14.4 6.9 -1.2 34 6.4 WNW 28 54 15 29 - - 0.0
05/02:00pm 14.1 8.4 -1.0 35 6.2 WNW 19 33 10 18 - - 0.0
05/01:30pm 14.0 7.3 -1.2 35 6.2 NW 24 37 13 20 - - 0.0
05/01:00pm 14.1 7.8 -1.0 35 6.2 NW 22 37 12 20 - - 0.0
05/12:35pm 14.0 6.4 -2.0 33 6.4 WNW 28 46 15 25 - - 0.0
05/12:30pm 13.7 7.0 -1.3 35 6.1 WNW 24 41 13 22 - - 0.0
05/12:00pm 13.1 6.3 -2.0 35 6.0 W 24 41 13 22 - - 0.0
05/11:30am 13.6 7.2 -1.5 35 6.1 WNW 22 33 12 18 - - 0.0
05/11:00am 13.0 7.2 -1.8 36 5.9 WNW 19 43 10 23 - - 0.0
05/10:30am 12.6 5.0 -2.1 36 5.8 NNW 28 44 15 24 - - 0.0
05/10:00am 10.9 4.7 -3.1 37 5.3 WNW 20 33 11 18 - - 0.0
05/09:30am 10.5 2.8 -3.0 38 5.1 NW 28 52 15 28 - - 0.0
05/09:23am 10.3 2.2 -3.4 38 5.1 NW 30 52 16 28 - - 0.0
05/09:22am 10.3 2.2 -3.4 38 5.1 NW 30 52 16 28 - - 0.0
05/09:00am 10.0 3.4 -3.1 39 4.9 NW 22 35 12 19 - - 0.0
05/08:30am 9.2 3.0 -2.9 42 4.5 NW 20 30 11 16 - - 0.0
05/08:00am 8.3 1.7 -3.6 43 4.3 NW 22 44 12 24 - - 0.0
05/07:30am 7.4 1.8 -3.1 47 3.8 NW 17 28 9 15 - - 0.0
05/07:00am 6.6 0.6 -3.2 49 3.5 WNW 19 32 10 17 - - 0.0
05/06:30am 6.6 0.4 -3.2 49 3.5 W 20 37 11 20 - - 0.0
05/06:00am 6.6 0.0 -3.2 49 3.5 WNW 22 33 12 18 - - 0.0
05/05:30am 6.7 -0.2 -3.0 50 3.5 WNW 24 39 13 21 - - 0.0
05/05:00am 6.8 1.5 -3.2 49 3.6 WNW 15 32 8 17 - - 0.0
05/04:30am 6.7 1.1 -3.0 50 3.5 WNW 17 26 9 14 - - 0.0
05/04:00am 6.6 1.4 -2.8 51 3.4 NW 15 24 8 13 - - 0.0
05/03:30am 6.6 1.8 -2.8 51 3.4 WNW 13 24 7 13 - - 0.0
05/03:00am 6.8 2.0 -2.9 50 3.5 WNW 13 19 7 10 - - 0.0
05/02:30am 6.5 2.1 -2.6 52 3.3 WNW 11 19 6 10 - - 0.0
05/02:00am 6.5 2.0 -2.9 51 3.4 WNW 11 17 6 9 - - 0.0
05/01:30am 6.3 0.4 -2.2 54 3.1 NW 19 30 10 16 - - 0.0
05/01:00am 6.3 1.9 -2.2 54 3.1 NNW 11 17 6 9 - - 0.0
05/12:30am 5.9 1.6 -1.7 58 2.8 NNW 11 15 6 8 - - 0.0
05/12:00am 5.7 1.4 -1.3 61 2.6 NNW 11 19 6 10 - - 0.0
 
Date/Time
EST
Temp
°C
App
Temp
°C
Dew
Point
Rel
Hum
%
Delta-T
°C
Wind Press
QNH
hPa
Press
MSL
hPa
Rain
since 9 am
mm
Dir
 
Spd
km/h
Gust
km/h
Spd
kts
Gust
kts
04/11:30pm 6.3 2.4 -1.5 57 2.9 NNW 9 13 5 7 - - 0.0
04/11:00pm 7.3 2.7 -1.4 54 3.3 WNW 13 19 7 10 - - 0.0
04/10:30pm 8.0 2.9 -1.8 50 3.7 WNW 15 24 8 13 - - 0.0
04/10:00pm 8.3 4.0 -1.4 50 3.7 WNW 11 26 6 14 - - 0.0
04/09:30pm 8.2 3.5 -1.5 50 3.7 NW 13 19 7 10 - - 0.0
04/09:00pm 8.7 3.6 -1.8 47 4.0 NNW 15 26 8 14 - - 0.0
04/08:30pm 10.2 5.0 -2.8 40 4.9 WNW 15 28 8 15 - - 0.0
04/08:00pm 9.8 5.4 -2.3 42 4.6 NW 11 19 6 10 - - 0.0
04/07:30pm 9.8 5.4 -2.3 42 4.6 NNW 11 15 6 8 - - 0.0
04/07:00pm 10.2 6.3 -1.7 43 4.6 NNW 9 13 5 7 - - 0.0
04/06:30pm 11.2 7.4 -0.8 43 4.8 NW 9 15 5 8 - - 0.0
04/06:00pm 11.3 7.8 1.0 49 4.3 NNW 9 13 5 7 - - 0.0
04/05:30pm 11.7 8.5 0.6 46 4.6 WNW 7 9 4 5 - - 0.0
04/05:00pm 11.1 8.7 2.2 54 3.8 NNW 4 9 2 5 - - 0.0
04/04:30pm 11.5 9.8 1.9 51 4.1 CALM 0 0 0 0 - - 0.0
04/04:00pm 11.9 8.4 1.5 49 4.4 W 9 17 5 9 - - 0.0
04/03:30pm 12.2 7.6 1.4 47 4.6 W 15 22 8 12 - - 0.0
04/03:00pm 13.7 8.4 1.7 44 5.2 W 19 24 10 13 - - 0.0
04/02:30pm 14.0 9.4 1.5 42 5.4 WNW 15 24 8 13 - - 0.0
04/02:00pm 14.8 10.2 1.5 40 5.8 W 15 20 8 11 - - 0.0
04/01:30pm 14.2 10.4 1.5 42 5.5 NW 11 19 6 10 - - 0.0
04/01:00pm 13.7 10.2 1.4 43 5.3 WNW 9 17 5 9 - - 0.0
04/12:30pm 13.0 9.4 0.3 41 5.3 WSW 9 17 5 9 - - 0.0
04/12:00pm 13.2 9.0 -0.7 38 5.7 WSW 11 17 6 9 - - 0.0
04/11:30am 13.0 9.0 0.3 41 5.3 SW 11 19 6 10 - - 0.0
04/11:00am 12.4 8.4 0.7 44 4.9 W 11 15 6 8 - - 0.0
04/10:30am 11.9 7.5 0.6 46 4.7 SW 13 15 7 8 - - 0.0
04/10:00am 11.7 7.8 1.3 49 4.4 SW 11 15 6 8 - - 0.0
04/09:30am 10.9 7.0 1.0 50 4.1 WSW 11 15 6 8 - - 0.0
04/09:00am 10.5 7.8 2.6 58 3.4 WSW 6 11 3 6 - - 0.0
04/08:30am 8.8 7.5 4.2 73 2.0 CALM 0 0 0 0 - - 0.0
04/08:00am 6.6 5.2 3.5 80 1.3 CALM 0 6 0 3 - - 0.0
04/07:30am 5.2 2.5 2.5 83 1.1 NW 6 7 3 4 - - 0.0
04/07:00am 4.7 2.4 2.7 87 0.8 NNW 4 7 2 4 - - 0.0
04/06:30am 4.8 2.9 2.6 86 0.9 WNW 2 6 1 3 - - 0.0
04/06:00am 4.8 2.1 2.8 87 0.8 WNW 6 9 3 5 - - 0.0
04/05:30am 4.7 2.8 2.7 87 0.8 WNW 2 6 1 3 - - 0.0
04/05:00am 5.9 3.6 2.5 79 1.4 WSW 4 9 2 5 - - 0.0
04/04:30am 6.2 4.7 2.8 79 1.4 CALM 0 0 0 0 - - 0.0
04/04:00am 5.8 3.9 2.6 80 1.3 NNE 2 7 1 4 - - 0.0
04/03:30am 6.3 4.0 2.7 78 1.5 NW 4 7 2 4 - - 0.0
04/03:00am 7.1 5.6 3.1 76 1.7 CALM 0 0 0 0 - - 0.0
04/02:30am 6.7 5.3 3.4 79 1.4 CALM 0 0 0 0 - - 0.0
04/02:00am 7.3 5.9 3.3 76 1.7 CALM 0 0 0 0 - - 0.0
04/01:30am 7.9 6.5 3.5 74 1.9 CALM 0 6 0 3 - - 0.0
04/01:00am 8.4 5.8 3.0 69 2.3 ENE 6 7 3 4 - - 0.0
04/12:30am 9.7 7.0 2.7 61 3.0 WSW 6 7 3 4 - - 0.0
04/12:00am 10.6 7.7 2.4 57 3.5 W 7 11 4 6 - - 0.0
 
Date/Time
EST
Temp
°C
App
Temp
°C
Dew
Point
Rel
Hum
%
Delta-T
°C
Wind Press
QNH
hPa
Press
MSL
hPa
Rain
since 9 am
mm
Dir
 
Spd
km/h
Gust
km/h
Spd
kts
Gust
kts
03/11:30pm 10.7 7.4 2.6 57 3.5 WSW 9 11 5 6 - - 0.0
03/11:00pm 10.8 7.1 2.1 55 3.7 WSW 11 13 6 7 - - 0.0
03/10:30pm 11.1 7.8 2.2 54 3.8 W 9 13 5 7 - - 0.0
03/10:00pm 11.3 8.0 2.5 54 3.8 W 9 13 5 7 - - 0.0
03/09:30pm 12.0 8.7 2.3 51 4.2 WSW 9 13 5 7 - - 0.0
03/09:00pm 13.2 9.4 1.9 46 4.9 W 11 15 6 8 - - 0.0
03/08:30pm 13.1 9.9 2.9 50 4.5 W 9 15 5 8 - - 0.0
03/08:00pm 13.3 9.7 2.9 49 4.6 W 11 17 6 9 - - 0.0
03/07:30pm 13.6 9.2 2.8 48 4.8 W 15 30 8 16 - - 0.0
03/07:00pm 14.4 9.9 2.1 43 5.4 WNW 15 20 8 11 - - 0.0
03/06:30pm 14.5 9.7 2.6 44 5.3 WNW 17 28 9 15 - - 0.0
03/06:00pm 15.0 9.6 2.4 42 5.6 NW 20 35 11 19 - - 0.0
03/05:30pm 15.1 9.7 2.3 42 5.7 NW 20 37 11 20 - - 0.0
03/05:00pm 15.6 9.0 2.1 40 6.0 NW 26 41 14 22 - - 0.0
03/04:30pm 16.3 10.7 1.3 36 6.6 WNW 20 41 11 22 - - 0.0
03/04:00pm 17.1 10.7 1.0 33 7.1 NW 24 37 13 20 - - 0.0
03/03:30pm 17.6 11.9 0.4 31 7.5 NW 20 35 11 19 - - 0.0
03/03:00pm 17.6 11.8 0.1 30 7.6 WNW 20 37 11 20 - - 0.0
03/02:30pm 17.6 11.5 0.1 30 7.6 WNW 22 35 12 19 - - 0.0
03/02:00pm 18.0 11.9 0.1 30 7.8 NW 22 33 12 18 - - 0.0
03/01:30pm 17.9 10.7 0.6 31 7.6 NW 28 48 15 26 - - 0.0
03/01:25pm 18.2 11.0 0.5 30 7.8 NW 28 46 15 25 - - 0.0
03/01:24pm 18.2 11.0 0.5 30 7.8 NW 28 46 15 25 - - 0.0
03/01:00pm 17.6 10.8 0.8 32 7.4 NW 26 41 14 22 - - 0.0
03/12:35pm 17.2 9.9 0.1 31 7.4 NW 28 48 15 26 - - 0.0
03/12:30pm 17.1 10.6 0.6 32 7.2 NW 24 48 13 26 - - 0.0
03/12:00pm 16.7 9.9 0.6 33 7.0 NW 26 37 14 20 - - 0.0
03/11:30am 16.6 9.7 0.1 32 7.1 NW 26 41 14 22 - - 0.0
03/11:00am 15.6 9.8 0.1 34 6.6 WNW 20 35 11 19 - - 0.0
03/10:30am 14.8 8.2 -0.5 35 6.4 WNW 24 41 13 22 - - 0.0
03/10:00am 14.4 8.9 0.5 38 5.9 NW 19 30 10 16 - - 0.0
03/09:30am 13.1 7.9 0.1 41 5.4 W 17 33 9 18 - - 0.0
03/09:00am 13.6 10.6 9.3 75 2.2 WSW 15 30 8 16 - - 0.0
03/08:30am 12.4 6.7 2.6 51 4.3 W 22 37 12 20 - - 0.0
03/08:00am 11.8 5.8 3.5 57 3.7 W 24 33 13 18 - - 0.0
03/07:30am 11.5 7.0 4.4 61 3.2 W 17 30 9 16 - - 0.0
03/07:00am 11.5 6.7 4.4 61 3.2 W 19 30 10 16 - - 0.0
03/06:30am 12.2 7.9 5.3 62 3.2 W 17 26 9 14 - - 0.0
03/06:00am 13.2 8.6 5.8 61 3.5 W 19 28 10 15 - - 0.0
03/05:30am 14.2 10.3 5.5 56 4.1 W 15 26 8 14 - - 0.0
03/05:00am 14.5 12.5 6.2 57 4.0 ENE 6 11 3 6 - - 0.0
03/04:30am 15.4 11.3 6.1 54 4.5 WNW 17 28 9 15 - - 0.0
03/04:00am 16.1 11.7 6.5 53 4.7 WNW 19 32 10 17 - - 0.0
03/03:30am 17.2 12.7 5.9 47 5.5 WNW 19 28 10 15 - - 0.0
03/03:00am 17.9 13.1 5.8 45 5.9 NW 20 33 11 18 - - 0.0
03/02:30am 18.7 14.5 5.9 43 6.3 WNW 17 32 9 17 - - 0.0
03/02:00am 19.3 14.0 6.8 44 6.3 NW 24 37 13 20 - - 0.0
03/01:30am 20.2 15.3 7.0 42 6.7 NW 22 39 12 21 - - 0.0
03/01:00am 19.5 14.5 8.1 47 5.9 NW 24 33 13 18 - - 0.0
03/12:30am 20.5 15.9 8.0 44 6.5 NW 22 37 12 20 - - 0.0
03/12:00am 20.2 16.3 8.5 47 6.1 WNW 19 30 10 16 - - 0.0
 
Date/Time
EST
Temp
°C
App
Temp
°C
Dew
Point
Rel
Hum
%
Delta-T
°C
Wind Press
QNH
hPa
Press
MSL
hPa
Rain
since 9 am
mm
Dir
 
Spd
km/h
Gust
km/h
Spd
kts
Gust
kts
02/11:30pm 19.4 14.9 8.4 49 5.7 W 22 35 12 19 - - 0.0
02/11:00pm 22.0 18.1 7.3 38 7.6 WNW 17 32 9 17 - - 0.0
02/10:30pm 22.1 17.7 7.2 38 7.7 NW 20 35 11 19 - - 0.0
02/10:00pm 22.2 17.3 7.1 37 7.8 NW 22 30 12 16 - - 0.0
02/09:30pm 22.1 17.6 6.9 37 7.8 NW 20 30 11 16 - - 0.0
02/09:00pm 22.3 17.7 6.4 35 8.1 NW 20 32 11 17 - - 0.0
02/08:30pm 22.3 18.2 6.1 35 8.2 NW 17 26 9 14 - - 0.0

Other Formats:

Comma delimited format used in spreadsheet applications
http://www.bom.gov.au/fwo/IDN60801/IDN60801.94775.axf

JavaScript Object Notation format (JSON) in row-major order
http://www.bom.gov.au/fwo/IDN60801/IDN60801.94775.json